Time;durP1;ratioP1;P1;durP2;ratioP2;P2;SDS_P1;SDS_P2;PMS_P1;PMS_P2;Temp;Humidity;BMP_temperature;BMP_pressure;BME280_temperature;BME280_humidity;BME280_pressure;Samples;Min_cycle;Max_cycle;Signal;HPM_P1;HPM_P2
2021/04/20 00:02:22;;;;;;;47.58;27.58;;;;;;;7.62;72.23;100188.31;5054084;27;97923;-75
2021/04/20 00:04:48;;;;;;;40.42;25.83;;;;;;;7.70;71.74;100181.16;5054868;27;97158;-75
2021/04/20 00:07:14;;;;;;;46.42;25.52;;;;;;;7.76;72.13;100186.22;5055548;27;97232;-75
2021/04/20 00:09:40;;;;;;;41.42;24.85;;;;;;;7.69;72.05;100185.53;5054850;27;100991;-76
2021/04/20 00:12:06;;;;;;;41.47;25.67;;;;;;;7.68;72.02;100181.22;5036600;27;100947;-75
2021/04/20 00:14:31;;;;;;;40.67;24.50;;;;;;;7.71;72.11;100181.13;5055679;27;96880;-75
2021/04/20 00:16:57;;;;;;;43.75;24.60;;;;;;;7.76;72.16;100178.38;5071920;27;97255;-75
2021/04/20 00:19:22;;;;;;;45.13;25.02;;;;;;;7.72;72.05;100180.22;5055375;27;97892;-75
2021/04/20 00:21:48;;;;;;;39.08;24.95;;;;;;;7.66;72.30;100188.22;5041349;27;97370;-75
2021/04/20 00:24:14;;;;;;;36.33;23.65;;;;;;;7.60;72.28;100190.13;5072988;27;97120;-75
2021/04/20 00:26:40;;;;;;;40.10;24.52;;;;;;;7.59;72.28;100186.66;5051017;27;96799;-75
2021/04/20 00:29:06;;;;;;;41.15;25.17;;;;;;;7.57;72.57;100187.59;5050302;27;101391;-75
2021/04/20 00:31:31;;;;;;;38.53;24.60;;;;;;;7.57;72.60;100190.22;5049537;27;97308;-75
2021/04/20 00:33:57;;;;;;;36.80;23.83;;;;;;;7.55;72.42;100185.00;5072012;27;96670;-75
2021/04/20 00:36:22;;;;;;;36.25;23.90;;;;;;;7.56;72.54;100186.72;5055692;27;96682;-76
2021/04/20 00:38:48;;;;;;;37.83;23.98;;;;;;;7.55;72.40;100190.22;5037676;27;101353;-75
2021/04/20 00:41:14;;;;;;;36.70;23.25;;;;;;;7.48;72.59;100188.66;5041906;27;100624;-75
2021/04/20 00:43:45;;;;;;;34.33;22.60;;;;;;;7.42;72.47;100189.66;5037139;27;96690;-75
2021/04/20 00:46:18;;;;;;;38.08;22.83;;;;;;;7.40;72.56;100191.44;5054977;27;97586;-75
2021/04/20 00:48:45;;;;;;;38.47;24.52;;;;;;;7.46;72.74;100193.06;5045368;27;97870;-75
2021/04/20 00:51:11;;;;;;;35.45;23.65;;;;;;;7.47;72.96;100185.16;5051056;27;97837;-75
2021/04/20 00:53:38;;;;;;;37.65;22.15;;;;;;;7.44;72.41;100187.84;5051270;27;96610;-76
2021/04/20 00:56:04;;;;;;;34.40;23.20;;;;;;;7.35;72.61;100185.47;5067853;27;97185;-75
2021/04/20 00:58:30;;;;;;;38.17;22.17;;;;;;;7.36;72.42;100184.59;5072383;27;98412;-76
2021/04/20 01:00:57;;;;;;;34.28;22.92;;;;;;;7.29;72.29;100185.59;5071897;27;97406;-75
2021/04/20 01:03:23;;;;;;;36.25;21.88;;;;;;;7.25;72.78;100182.22;5051544;27;96725;-75
2021/04/20 01:05:49;;;;;;;33.75;21.63;;;;;;;7.24;72.99;100187.44;5048544;27;97361;-75
2021/04/20 01:08:17;;;;;;;32.28;21.30;;;;;;;7.25;72.84;100182.22;5051194;27;100860;-75
2021/04/20 01:10:47;;;;;;;37.63;21.52;;;;;;;7.24;72.51;100174.41;5066859;27;97994;-76
2021/04/20 01:13:14;;;;;;;31.77;19.60;;;;;;;7.21;72.94;100177.97;5038188;27;96843;-75
2021/04/20 01:15:45;;;;;;;32.97;21.30;;;;;;;7.12;73.05;100178.16;5039866;27;96748;-76
2021/04/20 01:18:13;;;;;;;32.53;21.58;;;;;;;7.18;72.48;100183.22;5046963;27;98067;-75
2021/04/20 01:20:43;;;;;;;32.77;21.67;;;;;;;7.22;72.38;100171.84;5069128;27;97867;-76
2021/04/20 01:23:12;;;;;;;33.08;21.45;;;;;;;7.20;72.22;100171.00;5043176;27;97183;-76
2021/04/20 01:25:38;;;;;;;30.07;20.37;;;;;;;7.12;72.67;100172.06;5070269;27;96997;-76
2021/04/20 01:28:04;;;;;;;31.83;18.92;;;;;;;7.13;72.28;100165.97;5051055;27;101554;-75
2021/04/20 01:30:30;;;;;;;31.42;20.13;;;;;;;7.13;72.59;100169.44;5053363;27;100913;-75
2021/04/20 01:33:09;;;;;;;27.63;19.30;;;;;;;7.10;72.44;100166.91;5036658;27;97034;-75
2021/04/20 01:35:36;;;;;;;26.75;19.45;;;;;;;7.06;72.91;100164.38;5054654;27;97276;-75
2021/04/20 01:38:03;;;;;;;29.70;18.73;;;;;;;7.09;73.10;100172.16;5054485;27;97829;-76
2021/04/20 01:40:30;;;;;;;29.20;18.98;;;;;;;7.08;72.71;100166.06;5057823;27;101010;-76
2021/04/20 01:42:57;;;;;;;27.85;18.98;;;;;;;7.06;72.88;100161.78;5074785;27;96769;-76
2021/04/20 01:45:23;;;;;;;32.75;19.80;;;;;;;7.07;72.92;100166.09;5057998;27;97446;-76
2021/04/20 01:47:49;;;;;;;32.90;19.80;;;;;;;7.05;72.77;100168.75;5055789;27;100908;-76
2021/04/20 01:50:15;;;;;;;28.13;18.65;;;;;;;7.01;73.18;100161.84;5050924;27;97413;-75
2021/04/20 01:52:43;;;;;;;29.70;18.58;;;;;;;7.07;73.02;100156.53;5063202;27;96999;-76
2021/04/20 01:55:09;;;;;;;27.70;18.23;;;;;;;7.10;72.97;100163.41;5040978;27;97291;-75
2021/04/20 01:57:35;;;;;;;25.75;18.25;;;;;;;7.07;72.93;100164.38;5037669;27;101866;-75
2021/04/20 02:00:08;;;;;;;27.45;18.50;;;;;;;7.09;72.66;100166.91;5051819;27;101909;-75
2021/04/20 02:02:39;;;;;;;25.70;18.63;;;;;;;7.11;72.91;100166.00;5068372;27;96931;-75
2021/04/20 02:05:09;;;;;;;24.83;18.17;;;;;;;7.10;72.99;100163.41;5054225;27;96892;-75
2021/04/20 02:07:35;;;;;;;29.83;18.30;;;;;;;7.03;73.11;100168.75;5069519;27;99563;-75
2021/04/20 02:10:06;;;;;;;25.70;19.30;;;;;;;6.96;73.00;100166.34;5053421;27;101227;-75
2021/04/20 02:12:32;;;;;;;24.90;19.10;;;;;;;6.93;72.95;100169.88;5051350;27;97037;-75
2021/04/20 02:14:58;;;;;;;26.55;18.73;;;;;;;6.94;73.17;100179.41;5064373;27;97301;-76
2021/04/20 02:17:24;;;;;;;26.17;18.67;;;;;;;6.91;73.62;100176.88;5074921;27;98541;-75
2021/04/20 02:19:50;;;;;;;24.83;18.13;;;;;;;6.93;73.33;100176.84;5057119;27;100794;-75
2021/04/20 02:22:17;;;;;;;25.83;18.80;;;;;;;6.70;73.76;100175.56;5039715;27;97270;-75
2021/04/20 02:24:42;;;;;;;28.70;18.75;;;;;;;6.79;73.40;100184.97;5036447;27;97067;-76
2021/04/20 02:27:08;;;;;;;27.03;18.50;;;;;;;6.82;73.44;100176.22;5053722;27;98343;-75
2021/04/20 02:29:34;;;;;;;23.58;18.00;;;;;;;6.82;72.90;100177.06;5040566;27;101430;-75
2021/04/20 02:31:59;;;;;;;31.63;18.52;;;;;;;6.79;73.01;100180.59;5073455;27;97173;-76
2021/04/20 02:34:25;;;;;;;23.10;17.67;;;;;;;6.74;72.85;100174.59;5057709;27;96798;-75
2021/04/20 02:36:52;;;;;;;25.57;17.73;;;;;;;6.70;73.08;100177.31;5073273;27;97800;-75
2021/04/20 02:39:17;;;;;;;24.02;18.13;;;;;;;6.69;73.31;100175.59;5057988;27;97917;-75
2021/04/20 02:41:47;;;;;;;25.30;18.40;;;;;;;6.69;72.75;100166.03;5042794;27;96632;-76
2021/04/20 02:44:14;;;;;;;23.53;17.87;;;;;;;6.70;72.41;100167.75;5074666;27;96918;-75
2021/04/20 02:46:41;;;;;;;23.83;18.33;;;;;;;6.68;72.12;100168.66;5055504;27;101783;-76
2021/04/20 02:49:11;;;;;;;26.10;18.93;;;;;;;6.68;72.24;100160.84;5039810;27;101273;-75
2021/04/20 02:51:38;;;;;;;26.60;18.83;;;;;;;6.70;72.73;100167.75;5073094;27;96833;-75
2021/04/20 02:54:06;;;;;;;27.50;19.10;;;;;;;6.62;72.99;100168.78;5053142;27;97305;-75
2021/04/20 02:56:32;;;;;;;33.07;21.47;;;;;;;6.67;72.98;100159.97;5052790;27;97907;-75
2021/04/20 02:58:59;;;;;;;26.63;18.83;;;;;;;6.66;72.51;100166.09;5042741;27;101169;-75
2021/04/20 03:01:28;;;;;;;25.00;18.58;;;;;;;6.55;72.58;100162.84;5053161;27;96648;-75
2021/04/20 03:03:54;;;;;;;28.27;18.50;;;;;;;6.54;73.08;100166.31;5029271;27;97193;-75
2021/04/20 03:06:22;;;;;;;24.33;17.80;;;;;;;6.50;73.10;100156.84;5056586;27;98134;-75
2021/04/20 03:08:49;;;;;;;28.40;19.30;;;;;;;6.52;73.12;100157.69;5055751;27;101486;-75
2021/04/20 03:11:16;;;;;;;30.43;19.07;;;;;;;6.47;73.68;100152.56;5073486;27;97050;-75
2021/04/20 03:13:45;;;;;;;28.93;19.23;;;;;;;6.50;73.74;100154.25;5056077;27;97633;-75
2021/04/20 03:16:13;;;;;;;29.57;19.43;;;;;;;6.51;74.21;100158.56;5048721;27;98055;-75
2021/04/20 03:18:40;;;;;;;28.73;18.67;;;;;;;6.61;74.20;100154.03;5050573;27;101073;-75
2021/04/20 03:21:11;;;;;;;27.27;17.60;;;;;;;6.58;74.51;100160.19;5056275;27;96756;-75
2021/04/20 03:23:37;;;;;;;31.38;18.70;;;;;;;6.58;74.84;100154.97;5056823;27;97252;-75
2021/04/20 03:26:03;;;;;;;32.17;18.43;;;;;;;6.57;75.07;100155.81;5055120;27;101556;-75
2021/04/20 03:28:29;;;;;;;29.17;17.10;;;;;;;6.63;75.83;100152.25;5056648;27;101273;-75
2021/04/20 03:30:58;;;;;;;48.67;18.30;;;;;;;6.60;75.94;100152.31;5055869;27;97074;-75
2021/04/20 03:33:28;;;;;;;43.60;17.63;;;;;;;6.65;75.83;100147.84;5055482;27;97251;-75
2021/04/20 03:36:11;;;;;;;27.53;15.83;;;;;;;6.58;76.16;100148.00;5037601;27;101204;-75
2021/04/20 03:39:28;;;;;;;33.90;15.83;;;;;;;6.74;75.78;100153.72;5035907;27;101367;-75
2021/04/20 03:42:01;;;;;;;22.70;15.57;;;;;;;6.75;75.70;100157.22;5040378;27;97556;-75
2021/04/20 03:44:34;;;;;;;23.23;15.50;;;;;;;6.68;76.25;100153.88;5056582;27;96715;-75
2021/04/20 03:47:04;;;;;;;34.63;16.10;;;;;;;6.72;76.50;100160.75;5037719;27;101148;-74
2021/04/20 03:49:33;;;;;;;31.67;15.20;;;;;;;6.80;76.15;100155.34;5055220;27;100840;-75
2021/04/20 03:52:00;;;;;;;33.70;14.37;;;;;;;6.85;76.10;100153.50;5055489;27;97320;-75
2021/04/20 03:54:27;;;;;;;37.70;15.43;;;;;;;6.84;76.15;100151.81;5073733;27;96756;-75
2021/04/20 03:56:55;;;;;;;28.80;14.07;;;;;;;6.75;76.84;100165.06;5071931;27;98159;-75
2021/04/20 03:59:22;;;;;;;29.97;14.17;;;;;;;6.78;76.72;100160.63;5038693;27;101109;-75
2021/04/20 04:01:50;;;;;;;21.03;13.60;;;;;;;6.84;76.33;100166.63;5071848;27;96759;-75
2021/04/20 04:04:19;;;;;;;18.53;13.67;;;;;;;6.87;76.68;100159.56;5055827;27;97110;-75
2021/04/20 04:06:45;;;;;;;19.80;12.57;;;;;;;6.89;76.38;100169.97;5043588;27;101133;-75
2021/04/20 04:09:12;;;;;;;19.00;12.97;;;;;;;6.90;76.38;100167.34;5052808;27;101341;-75
2021/04/20 04:11:44;;;;;;;32.43;13.17;;;;;;;6.93;76.49;100163.81;5052671;27;97020;-75
2021/04/20 04:14:10;;;;;;;42.60;13.43;;;;;;;6.97;76.53;100165.44;5071057;27;96692;-75
2021/04/20 04:16:36;;;;;;;49.47;14.27;;;;;;;6.91;77.01;100171.66;5052016;27;97391;-75
2021/04/20 04:19:02;;;;;;;27.07;13.90;;;;;;;6.92;77.03;100162.06;5050026;27;98348;-75
2021/04/20 04:21:39;;;;;;;36.05;13.48;;;;;;;6.96;76.95;100167.19;5047110;27;96688;-75
2021/04/20 04:24:05;;;;;;;26.87;12.93;;;;;;;7.01;76.88;100167.06;5035531;27;96823;-75
2021/04/20 04:26:34;;;;;;;42.87;14.20;;;;;;;6.98;77.30;100167.16;5044181;27;97984;-75
2021/04/20 04:29:02;;;;;;;19.27;12.27;;;;;;;7.00;76.46;100166.22;5020754;27;101628;-75
2021/04/20 04:31:29;;;;;;;45.57;12.77;;;;;;;6.94;77.17;100171.59;5029965;27;96721;-75
2021/04/20 04:33:55;;;;;;;15.73;12.63;;;;;;;7.03;77.31;100178.34;5027770;27;97582;-75
2021/04/20 04:36:21;;;;;;;21.33;13.37;;;;;;;7.10;76.75;100176.47;5048665;27;101251;-75
2021/04/20 04:38:47;;;;;;;28.17;13.80;;;;;;;7.15;76.50;100174.63;5050769;27;98253;-75
2021/04/20 04:41:12;;;;;;;34.03;15.63;;;;;;;7.28;76.61;100177.81;5070199;27;97122;-75
2021/04/20 04:43:40;;;;;;;21.67;14.80;;;;;;;7.24;76.66;100180.50;5044177;27;97031;-75
2021/04/20 04:46:06;;;;;;;20.90;14.32;;;;;;;7.32;76.67;100176.84;5041659;27;100575;-75
2021/04/20 04:48:32;;;;;;;24.37;15.17;;;;;;;7.33;76.20;100182.06;5024751;27;101751;-75
2021/04/20 04:51:02;;;;;;;21.17;14.57;;;;;;;7.35;76.42;100182.00;5054404;27;97068;-75
2021/04/20 04:53:28;;;;;;;19.65;14.68;;;;;;;7.40;76.09;100186.22;5071223;27;96776;-75
2021/04/20 04:55:56;;;;;;;22.87;15.07;;;;;;;7.49;76.10;100193.00;5051663;27;97882;-75
2021/04/20 04:58:26;;;;;;;23.00;15.77;;;;;;;7.57;76.16;100190.22;5071913;27;97855;-75
2021/04/20 05:00:54;;;;;;;28.63;15.63;;;;;;;7.65;75.77;100191.75;5052754;27;98029;-76
2021/04/20 05:03:22;;;;;;;24.85;15.25;;;;;;;7.72;75.83;100187.22;5050876;27;97000;-76
2021/04/20 05:05:52;;;;;;;25.30;14.60;;;;;;;7.77;75.47;100184.50;5053557;27;100999;-77
2021/04/20 05:08:17;;;;;;;27.13;16.40;;;;;;;7.82;75.59;100183.47;5046473;27;97920;-76
2021/04/20 05:10:43;;;;;;;32.55;16.42;;;;;;;7.92;75.59;100176.28;5062257;27;96755;-76
2021/04/20 05:13:09;;;;;;;27.70;15.90;;;;;;;7.94;75.68;100184.91;5045931;27;97345;-76
2021/04/20 05:15:34;;;;;;;22.53;16.27;;;;;;;7.87;75.92;100192.06;5053506;27;101171;-76
2021/04/20 05:18:00;;;;;;;25.23;16.05;;;;;;;8.03;75.38;100191.66;5071905;27;97888;-76
2021/04/20 05:20:26;;;;;;;25.63;16.50;;;;;;;8.08;75.61;100188.03;5054603;27;97297;-77
2021/04/20 05:22:55;;;;;;;23.63;16.95;;;;;;;8.04;75.60;100182.94;5072011;27;97081;-75
2021/04/20 05:25:22;;;;;;;24.73;17.00;;;;;;;8.14;75.24;100189.63;5041719;27;101982;-76
2021/04/20 05:27:49;;;;;;;28.20;17.17;;;;;;;8.27;75.03;100193.66;5030333;27;102022;-76
2021/04/20 05:30:15;;;;;;;25.30;16.92;;;;;;;8.22;75.31;100187.69;5037920;27;97192;-76
2021/04/20 05:32:45;;;;;;;26.67;17.10;;;;;;;8.33;75.46;100195.25;5039172;27;96897;-76
2021/04/20 05:35:11;;;;;;;33.60;18.25;;;;;;;8.49;74.79;100180.88;5055324;27;98625;-76
2021/04/20 05:37:41;;;;;;;24.40;17.73;;;;;;;8.54;74.50;100186.00;5053856;27;98713;-76
2021/04/20 05:40:07;;;;;;;25.35;18.95;;;;;;;8.65;74.55;100188.31;5051058;27;97956;-76
2021/04/20 05:42:34;;;;;;;26.02;18.17;;;;;;;8.84;74.14;100190.38;5051831;27;96803;-76
2021/04/20 05:45:00;;;;;;;24.38;19.13;;;;;;;8.89;73.55;100182.34;5072188;27;98090;-76
2021/04/20 05:47:25;;;;;;;27.13;19.80;;;;;;;8.89;73.40;100184.13;5053403;27;97927;-76
2021/04/20 05:49:56;;;;;;;26.95;20.58;;;;;;;9.03;73.37;100177.56;5037440;27;96971;-76
2021/04/20 05:52:22;;;;;;;28.55;19.42;;;;;;;9.04;73.43;100174.03;5047397;27;97307;-76
2021/04/20 05:54:47;;;;;;;29.73;20.75;;;;;;;9.05;73.77;100170.53;5055325;27;98408;-77
2021/04/20 05:57:17;;;;;;;33.08;22.52;;;;;;;9.27;73.67;100177.72;5055032;27;101333;-77
2021/04/20 05:59:44;;;;;;;31.35;22.92;;;;;;;9.24;73.98;100180.44;5038098;27;96836;-78
2021/04/20 06:02:11;;;;;;;31.70;21.95;;;;;;;9.33;73.30;100180.16;5054636;27;97118;-76
2021/04/20 06:04:37;;;;;;;28.75;21.05;;;;;;;9.24;73.99;100190.91;5044959;27;98107;-77
2021/04/20 06:07:03;;;;;;;29.65;21.83;;;;;;;9.39;73.29;100181.72;5064403;27;97923;-76
2021/04/20 06:09:28;;;;;;;30.42;21.45;;;;;;;9.56;73.42;100186.44;5034813;27;97360;-76
2021/04/20 06:11:54;;;;;;;28.80;21.15;;;;;;;9.88;72.46;100181.00;5044155;27;97324;-75
2021/04/20 06:14:20;;;;;;;32.08;23.75;;;;;;;10.41;70.74;100175.72;5054312;27;101178;-76
2021/04/20 06:16:45;;;;;;;32.85;22.67;;;;;;;10.39;71.06;100182.78;5071254;27;97823;-78
2021/04/20 06:19:11;;;;;;;28.98;21.45;;;;;;;10.45;71.02;100181.72;5054029;27;97247;-76
2021/04/20 06:21:37;;;;;;;29.73;21.70;;;;;;;10.64;70.56;100181.88;5054886;27;96904;-77
2021/04/20 06:24:05;;;;;;;33.92;21.42;;;;;;;10.64;70.70;100176.63;5036887;27;102771;-77
2021/04/20 06:26:34;;;;;;;31.95;21.92;;;;;;;10.69;70.89;100179.97;5053709;27;98059;-77
2021/04/20 06:29:01;;;;;;;28.13;21.80;;;;;;;10.95;70.60;100186.88;5033901;27;97217;-77
2021/04/20 06:31:26;;;;;;;27.77;22.27;;;;;;;11.47;69.54;100179.59;5065084;27;96929;-77
2021/04/20 06:33:52;;;;;;;30.27;22.25;;;;;;;11.57;68.46;100183.56;5036683;27;101642;-77
2021/04/20 06:36:17;;;;;;;36.38;23.80;;;;;;;11.72;69.04;100178.59;5035390;27;101271;-77
2021/04/20 06:38:44;;;;;;;33.30;22.52;;;;;;;12.22;67.34;100180.94;5053926;27;96722;-77
2021/04/20 06:41:10;;;;;;;29.63;23.20;;;;;;;12.37;67.15;100177.63;5070385;27;97210;-77
2021/04/20 06:43:48;;;;;;;26.92;20.95;;;;;;;13.83;63.29;100181.41;5041535;27;101119;-77
2021/04/20 06:46:15;;;;;;;24.98;20.83;;;;;;;13.30;64.16;100180.44;5031097;27;101027;-78
2021/04/20 06:48:44;;;;;;;27.92;22.17;;;;;;;14.19;62.71;100177.84;5071321;27;97092;-77
2021/04/20 06:51:34;;;;;;;25.95;19.35;;;;;;;15.29;60.41;100181.69;5046386;27;97206;-77
2021/04/20 06:54:33;;;;;;;23.00;19.60;;;;;;;18.23;53.13;100176.81;5070272;27;98286;-76
2021/04/20 06:57:03;;;;;;;32.03;19.45;;;;;;;19.88;48.66;100179.28;5044461;27;98721;-75
2021/04/20 06:59:47;;;;;;;23.52;17.23;;;;;;;19.91;48.29;100173.72;5050657;27;97277;-75
2021/04/20 07:02:41;;;;;;;29.17;18.65;;;;;;;18.05;51.60;100180.72;5033738;27;96844;-76
2021/04/20 07:05:09;;;;;;;28.25;21.13;;;;;;;16.99;55.09;100182.28;5078249;27;99126;-77
2021/04/20 07:07:44;;;;;;;27.25;20.67;;;;;;;17.72;52.98;100184.63;5053394;27;101484;-78
2021/04/20 07:10:23;;;;;;;23.25;20.55;;;;;;;17.76;52.85;100180.81;5050236;27;96848;-76
2021/04/20 07:12:49;;;;;;;20.92;16.63;;;;;;;20.31;47.74;100168.88;5053056;27;97387;-76
2021/04/20 07:15:20;;;;;;;22.15;15.43;;;;;;;22.67;43.66;100167.44;5036078;27;101635;-77
2021/04/20 07:17:49;;;;;;;;;;;;;;;23.63;42.28;100159.84;5036869;27;101372;-75
2021/04/20 07:20:30;;;;;;;16.67;13.15;;;;;;;25.14;39.33;100163.50;5088774;27;96973;-75
2021/04/20 07:23:14;;;;;;;16.27;11.55;;;;;;;26.28;37.88;100163.75;5070424;27;97361;-75
2021/04/20 07:25:59;;;;;;;16.13;11.93;;;;;;;26.00;36.74;100165.72;5070278;27;101029;-74
2021/04/20 07:28:52;;;;;;;21.67;13.02;;;;;;;26.47;36.55;100160.03;5070461;27;101695;-73
2021/04/20 07:31:40;;;;;;;16.27;11.63;;;;;;;26.13;37.01;100159.97;5051651;27;97156;-74
2021/04/20 07:34:27;;;;;;;13.75;12.10;;;;;;;27.24;36.00;100157.41;5051775;27;97411;-76
2021/04/20 07:37:04;;;;;;;13.15;11.52;;;;;;;25.63;37.22;100157.84;5069458;27;98122;-77
2021/04/20 07:39:56;;;;;;;11.98;10.45;;;;;;;26.46;36.14;100158.34;5044181;27;101208;-76
2021/04/20 07:42:36;;;;;;;11.48;10.15;;;;;;;27.15;35.27;100153.84;5044308;27;96960;-77
2021/04/20 07:45:17;;;;;;;12.52;10.55;;;;;;;26.45;35.36;100156.66;5051777;27;97027;-80
2021/04/20 07:47:48;;;;;;;14.82;10.90;;;;;;;27.18;35.04;100156.22;5068559;27;97430;-81
2021/04/20 07:50:28;;;;;;;13.95;11.43;;;;;;;28.19;33.58;100153.31;5070061;27;97399;-79
2021/04/20 07:53:19;;;;;;;14.80;11.57;;;;;;;28.25;33.23;100150.97;5047102;27;97726;-79
2021/04/20 07:55:51;;;;;;;14.63;11.30;;;;;;;28.72;33.51;100137.53;5060942;27;97040;-82
2021/04/20 07:58:20;;;;;;;13.80;9.52;;;;;;;29.54;32.25;100132.56;5056159;27;98603;-80
2021/04/20 08:01:04;;;;;;;11.18;10.02;;;;;;;29.46;31.51;100145.28;5032627;27;98390;-81
2021/04/20 08:03:34;;;;;;;14.20;10.65;;;;;;;30.12;31.23;100138.38;5065472;27;97811;-81
2021/04/20 08:06:02;;;;;;;14.30;10.20;;;;;;;30.65;30.62;100135.66;5038809;27;97271;-80
2021/04/20 08:08:35;;;;;;;12.43;10.23;;;;;;;29.91;31.10;100127.41;5045592;27;101454;-79
2021/04/20 08:11:04;;;;;;;18.52;10.45;;;;;;;29.97;30.89;100135.63;5050879;27;98717;-80
2021/04/20 08:13:35;;;;;;;12.02;10.27;;;;;;;28.41;32.22;100121.22;5066140;27;97184;-81
2021/04/20 08:16:21;;;;;;;14.23;10.00;;;;;;;29.05;31.60;100121.22;5065385;27;98546;-79
2021/04/20 08:19:02;;;;;;;21.70;10.70;;;;;;;27.67;33.45;100121.28;5046813;27;101228;-76
2021/04/20 08:21:28;;;;;;;12.82;9.82;;;;;;;26.81;34.61;100133.13;5048736;27;100987;-76
2021/04/20 08:23:56;;;;;;;12.60;9.65;;;;;;;27.68;34.42;100130.19;5038202;27;98091;-76
2021/04/20 08:26:26;;;;;;;25.92;11.07;;;;;;;29.07;32.10;100124.59;5044029;27;97131;-76
2021/04/20 08:29:04;;;;;;;12.30;9.82;;;;;;;28.59;33.22;100121.84;5064467;27;97709;-76
2021/04/20 08:31:39;;;;;;;16.13;9.80;;;;;;;29.38;31.73;100119.16;5047104;27;98703;-76
2021/04/20 08:34:32;;;;;;;10.73;9.60;;;;;;;29.32;31.03;100123.44;5032515;27;97859;-76
2021/04/20 08:37:01;;;;;;;12.35;9.60;;;;;;;29.86;31.27;100119.00;5068275;27;96792;-76
2021/04/20 08:39:38;;;;;;;13.57;9.35;;;;;;;30.60;30.04;100125.38;5066254;27;98697;-74
2021/04/20 08:42:20;;;;;;;11.50;9.52;;;;;;;30.94;29.92;100120.44;5038385;27;97518;-75
2021/04/20 08:44:54;;;;;;;10.25;8.77;;;;;;;31.08;28.91;100119.56;5048392;27;98662;-72
2021/04/20 08:47:26;;;;;;;11.43;9.27;;;;;;;30.15;29.67;100120.94;5069234;27;96849;-74
2021/04/20 08:50:03;;;;;;;11.50;9.07;;;;;;;31.31;29.50;100114.81;5046727;27;97368;-74
2021/04/20 08:52:38;;;;;;;12.45;7.75;;;;;;;31.26;29.50;100114.53;5058344;27;101715;-74
2021/04/20 08:55:22;;;;;;;10.27;7.93;;;;;;;31.10;29.77;100114.78;5071991;27;97011;-74
2021/04/20 08:58:04;;;;;;;14.20;9.27;;;;;;;31.69;28.56;100120.03;5090278;27;97115;-72
2021/04/20 09:00:57;;;;;;;11.07;8.55;;;;;;;31.28;29.41;100120.63;5072834;27;97479;-74
2021/04/20 09:03:39;;;;;;;12.13;8.40;;;;;;;31.48;29.85;100112.72;5072182;27;101231;-74
2021/04/20 09:06:07;;;;;;;10.77;9.00;;;;;;;31.60;29.28;100109.50;5054177;27;97439;-74
2021/04/20 09:08:44;;;;;;;12.88;8.38;;;;;;;31.83;27.66;100109.31;5038472;27;96807;-74
2021/04/20 09:11:12;;;;;;;12.85;8.20;;;;;;;31.19;27.79;100105.50;5030348;27;99396;-74
2021/04/20 09:13:51;;;;;;;9.98;8.70;;;;;;;31.24;27.98;100113.91;5044790;27;101321;-74
2021/04/20 09:16:21;;;;;;;20.95;10.20;;;;;;;30.58;28.97;100111.19;5051034;27;97228;-74
2021/04/20 09:18:47;;;;;;;16.10;9.07;;;;;;;30.37;29.30;100103.81;5067397;27;97104;-73
2021/04/20 09:21:31;;;;;;;10.85;8.63;;;;;;;29.75;29.61;100095.91;5071382;27;98562;-75
2021/04/20 09:24:15;;;;;;;12.32;9.10;;;;;;;29.18;29.31;100099.88;5051263;27;97999;-75
2021/04/20 09:27:13;;;;;;;19.48;9.88;;;;;;;27.89;31.40;100100.88;5048002;27;97181;-74
2021/04/20 09:29:56;;;;;;;19.88;9.43;;;;;;;26.92;32.43;100104.25;5066709;27;97034;-74
2021/04/20 09:32:34;;;;;;;14.60;9.48;;;;;;;25.97;33.92;100099.66;5089668;27;97923;-74
2021/04/20 09:35:00;;;;;;;16.98;9.10;;;;;;;25.64;34.05;100106.59;5070668;27;98307;-76
2021/04/20 09:37:28;;;;;;;19.15;9.52;;;;;;;25.18;34.39;100103.13;5072188;27;96686;-75
2021/04/20 09:39:55;;;;;;;14.85;9.90;;;;;;;24.86;35.87;100098.19;5028557;27;97241;-74
2021/04/20 09:42:21;;;;;;;13.23;9.55;;;;;;;24.43;35.85;100096.13;5071353;27;99847;-75
2021/04/20 09:45:11;;;;;;;13.95;8.88;;;;;;;24.10;36.74;100098.31;5071174;27;97989;-77
2021/04/20 09:47:37;;;;;;;17.30;9.07;;;;;;;23.93;37.40;100103.44;5051470;27;96805;-76
2021/04/20 09:50:02;;;;;;;14.48;8.98;;;;;;;23.71;38.07;100093.03;5070534;27;96983;-74
2021/04/20 09:53:02;;;;;;;10.50;8.43;;;;;;;23.67;38.59;100089.75;5071748;27;99437;-72
2021/04/20 09:55:44;;;;;;;18.45;9.48;;;;;;;23.47;40.12;100094.28;5053971;27;100872;-72
2021/04/20 09:58:10;;;;;;;13.07;9.40;;;;;;;23.38;40.12;100092.41;5049553;27;97750;-74
2021/04/20 10:00:39;;;;;;;17.83;9.50;;;;;;;22.99;39.73;100095.06;5035825;27;97013;-74
2021/04/20 10:03:23;;;;;;;13.70;8.98;;;;;;;22.93;39.42;100089.38;5073726;27;97702;-76
2021/04/20 10:05:55;;;;;;;14.43;8.25;;;;;;;22.62;40.76;100089.41;5040379;27;101043;-78
2021/04/20 10:08:42;;;;;;;11.60;7.72;;;;;;;22.82;40.24;100091.16;5093354;27;96885;-74
2021/04/20 10:11:33;;;;;;;15.07;8.57;;;;;;;22.94;41.13;100091.06;5073783;27;98079;-74
2021/04/20 10:14:09;;;;;;;11.03;8.53;;;;;;;22.59;41.18;100078.97;5092827;27;98172;-74
2021/04/20 10:16:59;;;;;;;13.05;8.82;;;;;;;22.48;41.06;100084.44;5057380;27;101668;-75
2021/04/20 10:19:37;;;;;;;13.83;8.20;;;;;;;22.31;41.34;100081.41;5075388;27;97051;-74
2021/04/20 10:22:24;;;;;;;8.95;7.68;;;;;;;22.38;40.63;100084.38;5039992;27;96764;-74
2021/04/20 10:25:08;;;;;;;13.98;8.10;;;;;;;22.06;40.02;100081.81;5056263;27;101503;-78
2021/04/20 10:27:36;;;;;;;11.30;7.25;;;;;;;21.96;40.13;100076.38;5057536;27;100618;-73
2021/04/20 10:30:11;;;;;;;24.38;8.75;;;;;;;21.91;39.89;100076.78;5042279;27;97293;-73
2021/04/20 10:32:40;;;;;;;12.77;8.88;;;;;;;21.64;40.76;100074.66;5074688;27;96822;-73
2021/04/20 10:35:14;;;;;;;22.70;9.05;;;;;;;21.54;41.06;100068.38;5055307;27;101511;-73
2021/04/20 10:37:43;;;;;;;17.65;8.02;;;;;;;21.45;41.29;100064.63;5036713;27;100697;-73
2021/04/20 10:40:11;;;;;;;14.13;8.25;;;;;;;21.53;41.64;100064.00;5036812;27;97018;-73
2021/04/20 10:42:38;;;;;;;14.80;8.38;;;;;;;21.42;42.39;100064.91;5040510;27;96754;-74
2021/04/20 10:45:08;;;;;;;14.25;7.35;;;;;;;21.28;41.80;100070.50;5052402;27;101265;-73
2021/04/20 10:47:38;;;;;;;9.05;6.63;;;;;;;20.92;39.32;100061.88;5065393;27;97839;-73
2021/04/20 10:50:06;;;;;;;12.32;7.30;;;;;;;20.99;39.81;100046.22;5073202;27;97158;-72
2021/04/20 10:52:34;;;;;;;9.95;6.85;;;;;;;20.75;39.85;100054.41;5057052;27;97319;-73
2021/04/20 10:55:05;;;;;;;8.45;6.10;;;;;;;20.77;41.00;100050.63;5072889;27;98401;-74
2021/04/20 10:57:31;;;;;;;14.70;7.13;;;;;;;20.76;41.26;100048.06;5074161;27;97450;-72
2021/04/20 10:59:57;;;;;;;10.15;6.82;;;;;;;20.77;40.26;100047.13;5056598;27;96844;-73
2021/04/20 11:02:34;;;;;;;13.35;6.10;;;;;;;20.71;39.27;100039.59;5054102;27;97015;-72
2021/04/20 11:05:00;;;;;;;13.10;5.70;;;;;;;20.45;38.12;100034.53;5052571;27;100477;-73
2021/04/20 11:07:33;;;;;;;9.65;6.05;;;;;;;20.51;38.25;100033.19;5052771;27;100994;-73
2021/04/20 11:10:03;;;;;;;9.02;6.72;;;;;;;20.32;37.59;100031.97;5056055;27;96847;-73
2021/04/20 11:12:29;;;;;;;12.98;6.53;;;;;;;20.21;37.90;100028.47;5052815;27;97213;-73
2021/04/20 11:14:56;;;;;;;10.27;5.68;;;;;;;20.53;38.75;100017.94;5054914;27;101421;-77
2021/04/20 11:17:40;;;;;;;7.63;5.60;;;;;;;20.51;37.00;100017.19;5022205;27;101668;-72
2021/04/20 11:20:26;;;;;;;10.43;5.63;;;;;;;20.59;38.06;100017.44;5064364;27;96797;-75
2021/04/20 11:23:19;;;;;;;12.00;5.57;;;;;;;20.76;38.06;100010.75;5081024;27;97237;-71
2021/04/20 11:25:54;;;;;;;8.35;4.63;;;;;;;20.91;37.64;100012.16;5066810;27;98028;-77
2021/04/20 11:28:39;;;;;;;8.98;5.07;;;;;;;21.11;36.37;99997.16;5061422;27;98639;-75
2021/04/20 11:31:10;;;;;;;8.50;5.90;;;;;;;21.17;36.26;99999.31;5080282;27;97041;-76
2021/04/20 11:33:54;;;;;;;8.93;5.05;;;;;;;21.30;37.07;99993.81;5047673;27;96788;-75